Terminal Aerodrome Forecast
Issued by NWS Memphis, TN

Home | Current Version | Previous Version | Text Only | Print | Product List | Glossary On
Versions: 1 2 3 4 5 6 7 8 9 10 11 12 13 14 15 16 17 18 19 20 21 22 23 24
000
FTUS44 KMEG 300523
TAFJBR
TAF
KJBR 300523Z 3006/3106 23003KT P6SM SCT250
     FM301500 25007KT P6SM SCT100 SCT250
     FM302100 25007KT P6SM VCTS SCT050CB BKN150
     FM310300 VRB03KT P6SM SCT050 SCT150=

USA.gov is the U.S. government's official web portal to all federal, state and local government web resources and services.